createdAt,value
2019-02-17T00:00:45.841Z,73.78
2019-02-17T00:01:45.826Z,73.60
2019-02-17T00:02:45.818Z,73.40
2019-02-17T00:03:45.800Z,74.02
2019-02-17T00:04:45.794Z,74.02
2019-02-17T00:05:45.791Z,74.12
2019-02-17T00:06:45.781Z,73.71
2019-02-17T00:07:45.761Z,73.71
2019-02-17T00:08:45.751Z,73.91
2019-02-17T00:09:45.757Z,73.64
2019-02-17T00:10:45.732Z,73.95
2019-02-17T00:11:45.728Z,73.64
2019-02-17T00:12:45.711Z,73.85
2019-02-17T00:13:45.698Z,73.64
2019-02-17T00:14:45.681Z,74.19
2019-02-17T00:15:45.684Z,73.74
2019-02-17T00:16:45.657Z,73.85
2019-02-17T00:17:45.653Z,73.47
2019-02-17T00:18:45.643Z,74.50
2019-02-17T00:19:45.647Z,74.81
2019-02-17T00:20:45.636Z,75.26
2019-02-17T00:21:45.610Z,75.36
2019-02-17T00:22:45.602Z,75.09
2019-02-17T00:23:45.603Z,75.09
2019-02-17T00:24:45.591Z,75.09
2019-02-17T00:25:45.582Z,75.91
2019-02-17T00:26:45.551Z,76.77
2019-02-17T00:27:45.539Z,76.67
2019-02-17T00:28:45.534Z,76.67
2019-02-17T00:29:45.563Z,76.67
2019-02-17T00:30:45.514Z,76.29
2019-02-17T00:31:45.505Z,76.98
2019-02-17T00:32:45.509Z,76.50
2019-02-17T00:33:45.483Z,77.08
2019-02-17T00:34:45.481Z,77.43
2019-02-17T00:35:45.458Z,77.01
2019-02-17T00:36:45.438Z,77.08
2019-02-17T00:37:45.432Z,76.81
2019-02-17T00:38:45.435Z,77.64
2019-02-17T00:39:45.435Z,77.22
2019-02-17T00:40:45.393Z,78.77
2019-02-17T00:41:45.387Z,78.67
2019-02-17T00:42:45.400Z,78.46
2019-02-17T00:43:45.371Z,77.74
2019-02-17T00:44:45.359Z,78.56
2019-02-17T00:45:45.369Z,78.67
2019-02-17T00:46:45.417Z,77.94
2019-02-17T00:47:45.342Z,78.15
2019-02-17T00:48:45.309Z,77.94
2019-02-17T00:49:45.304Z,78.67
2019-02-17T00:50:45.333Z,77.81
2019-02-17T00:51:45.324Z,77.84
2019-02-17T00:52:45.273Z,78.67
2019-02-17T00:53:45.281Z,78.53
2019-02-17T00:54:45.277Z,78.53
2019-02-17T00:55:45.270Z,78.28
2019-02-17T00:56:45.246Z,78.39
2019-02-17T00:57:45.251Z,77.98
2019-02-17T00:58:45.220Z,77.42
2019-02-17T00:59:45.195Z,77.01
2019-02-17T01:00:45.179Z,76.46
2019-02-17T01:01:45.175Z,76.35
2019-02-17T01:02:45.171Z,76.77
2019-02-17T01:03:45.176Z,76.56
2019-02-17T01:04:45.147Z,76.77
2019-02-17T01:05:45.149Z,76.87
2019-02-17T01:06:45.133Z,76.67
2019-02-17T01:07:45.118Z,76.63
2019-02-17T01:08:45.097Z,76.87
2019-02-17T01:09:45.105Z,76.56
2019-02-17T01:10:45.083Z,76.87
2019-02-17T01:11:45.081Z,77.08
2019-02-17T01:12:45.064Z,76.67
2019-02-17T01:13:45.050Z,76.46
2019-02-17T01:14:45.057Z,76.15
2019-02-17T01:15:45.029Z,76.25
2019-02-17T01:16:45.026Z,76.56
2019-02-17T01:17:45.010Z,76.46
2019-02-17T01:18:44.990Z,76.29
2019-02-17T01:19:44.983Z,76.46
2019-02-17T01:20:44.995Z,76.35
2019-02-17T01:21:44.981Z,76.56
2019-02-17T01:22:44.957Z,76.15
2019-02-17T01:23:44.945Z,76.25
2019-02-17T01:24:44.941Z,76.56
2019-02-17T01:25:44.919Z,76.81
2019-02-17T01:26:44.922Z,76.90
2019-02-17T01:27:44.890Z,76.50
2019-02-17T01:28:44.889Z,76.98
2019-02-17T01:29:44.874Z,76.81
2019-02-17T01:30:44.873Z,76.90
2019-02-17T01:31:44.849Z,76.90
2019-02-17T01:32:44.854Z,77.11
2019-02-17T01:33:44.835Z,76.39
2019-02-17T01:34:44.821Z,76.50
2019-02-17T01:35:44.810Z,76.50
2019-02-17T01:36:44.803Z,76.90
2019-02-17T01:37:44.799Z,76.08
2019-02-17T01:38:44.805Z,77.11
2019-02-17T01:39:44.771Z,76.60
2019-02-17T01:40:44.749Z,77.11
2019-02-17T01:41:44.749Z,77.11
2019-02-17T01:42:44.736Z,77.28
2019-02-17T01:43:44.748Z,76.56
2019-02-17T01:44:44.715Z,77.01
2019-02-17T01:45:44.707Z,76.56
2019-02-17T01:46:44.690Z,77.18
2019-02-17T01:47:44.694Z,76.98
2019-02-17T01:48:44.670Z,77.08
2019-02-17T01:49:44.670Z,77.28
2019-02-17T01:50:44.644Z,76.39
2019-02-17T01:51:44.634Z,77.11
2019-02-17T01:52:44.616Z,77.08
2019-02-17T01:53:44.618Z,76.46
2019-02-17T01:54:44.616Z,76.67
2019-02-17T01:55:46.949Z,76.87
2019-02-17T01:56:44.587Z,76.67
2019-02-17T01:57:44.585Z,76.87
2019-02-17T01:58:44.560Z,77.01
2019-02-17T01:59:44.561Z,76.81
2019-02-17T02:00:44.545Z,76.90
2019-02-17T02:01:44.535Z,77.42
2019-02-17T02:02:44.514Z,76.90
2019-02-17T02:03:44.500Z,77.11
2019-02-17T02:04:44.487Z,77.01
2019-02-17T02:05:44.496Z,77.42
2019-02-17T02:06:44.479Z,77.73
2019-02-17T02:07:44.466Z,77.73
2019-02-17T02:08:44.467Z,77.67
2019-02-17T02:09:44.446Z,77.98
2019-02-17T02:10:44.430Z,78.59
2019-02-17T02:11:44.421Z,78.49
2019-02-17T02:12:44.405Z,78.39
2019-02-17T02:13:44.393Z,78.59
2019-02-17T02:14:44.398Z,78.18
2019-02-17T02:15:44.375Z,78.28
2019-02-17T02:16:44.357Z,78.49
2019-02-17T02:17:44.349Z,78.18
2019-02-17T02:18:44.356Z,78.49
2019-02-17T02:19:44.343Z,78.49
2019-02-17T02:20:44.322Z,77.70
2019-02-17T02:21:44.307Z,78.84
2019-02-17T02:22:44.294Z,78.53
2019-02-17T02:23:44.284Z,78.77
2019-02-17T02:24:44.292Z,78.77
2019-02-17T02:25:44.267Z,78.88
2019-02-17T02:26:44.260Z,78.56
2019-02-17T02:27:44.249Z,78.25
2019-02-17T02:28:44.238Z,78.70
2019-02-17T02:29:44.233Z,78.91
2019-02-17T02:30:44.225Z,79.12
2019-02-17T02:31:44.200Z,79.67
2019-02-17T02:32:44.193Z,79.67
2019-02-17T02:33:44.176Z,80.02
2019-02-17T02:34:44.184Z,80.02
2019-02-17T02:35:44.163Z,80.74
2019-02-17T02:36:44.140Z,80.95
2019-02-17T02:37:44.147Z,80.85
2019-02-17T02:38:44.128Z,81.09
2019-02-17T02:39:44.136Z,81.20
2019-02-17T02:40:44.129Z,81.61
2019-02-17T02:41:44.092Z,81.51
2019-02-17T02:42:44.079Z,82.13
2019-02-17T02:43:44.121Z,82.03
2019-02-17T02:44:44.060Z,82.44
2019-02-17T02:45:44.050Z,82.03
2019-02-17T02:46:44.060Z,81.40
2019-02-17T02:47:44.043Z,81.61
2019-02-17T02:48:44.041Z,81.23
2019-02-17T02:49:44.007Z,81.54
2019-02-17T02:50:43.999Z,82.31
2019-02-17T02:51:43.987Z,82.10
2019-02-17T02:52:43.977Z,82.10
2019-02-17T02:53:43.971Z,81.89
2019-02-17T02:54:43.961Z,82.34
2019-02-17T02:55:43.952Z,82.97
2019-02-17T02:56:43.936Z,82.65
2019-02-17T02:57:43.918Z,83.38
2019-02-17T02:58:43.907Z,83.94
2019-02-17T02:59:52.098Z,84.56
2019-02-17T03:00:44.902Z,84.11
2019-02-17T03:01:43.878Z,84.31
2019-02-17T03:02:43.875Z,85.25
2019-02-17T03:03:45.972Z,85.77
2019-02-17T03:04:43.853Z,85.31
2019-02-17T03:05:43.833Z,85.27
2019-02-17T03:06:43.820Z,84.72
2019-02-17T03:07:43.886Z,83.47
2019-02-17T03:08:43.810Z,83.12
2019-02-17T03:09:43.786Z,82.67
2019-02-17T03:10:43.791Z,82.26
2019-02-17T03:11:43.771Z,82.05
2019-02-17T03:12:43.778Z,82.15
2019-02-17T03:13:43.744Z,82.01
2019-02-17T03:14:43.733Z,81.70
2019-02-17T03:15:43.735Z,81.54
2019-02-17T03:16:43.712Z,80.50
2019-02-17T03:17:43.697Z,81.23
2019-02-17T03:18:43.736Z,81.37
2019-02-17T03:19:43.692Z,80.68
2019-02-17T03:20:43.663Z,81.13
2019-02-17T03:21:43.657Z,81.96
2019-02-17T03:22:43.646Z,83.41
2019-02-17T03:23:43.635Z,82.89
2019-02-17T03:24:43.636Z,82.72
2019-02-17T03:25:45.378Z,82.62
2019-02-17T03:26:43.605Z,82.76
2019-02-17T03:27:43.605Z,83.48
2019-02-17T03:28:43.596Z,84.21
2019-02-17T03:29:43.569Z,84.00
2019-02-17T03:30:43.577Z,84.21
2019-02-17T03:31:43.563Z,84.52
2019-02-17T03:32:43.541Z,84.15
2019-02-17T03:33:43.538Z,84.52
2019-02-17T03:34:43.533Z,84.31
2019-02-17T03:35:44.523Z,84.56
2019-02-17T03:36:43.563Z,84.67
2019-02-17T03:37:43.485Z,84.60
2019-02-17T03:38:43.481Z,84.81
2019-02-17T03:39:43.465Z,84.50
2019-02-17T03:40:43.446Z,85.33
2019-02-17T03:41:43.444Z,85.39
2019-02-17T03:42:43.436Z,85.53
2019-02-17T03:43:43.427Z,85.64
2019-02-17T03:44:43.433Z,85.53
2019-02-17T03:45:43.402Z,85.12
2019-02-17T03:46:43.394Z,85.53
2019-02-17T03:47:43.377Z,86.02
2019-02-17T03:48:43.378Z,87.26
2019-02-17T03:49:43.357Z,87.12
2019-02-17T03:50:43.361Z,86.80
2019-02-17T03:51:43.352Z,86.15
2019-02-17T03:52:43.324Z,85.17
2019-02-17T03:53:43.334Z,84.92
2019-02-17T03:54:43.306Z,84.82
2019-02-17T03:55:43.309Z,84.06
2019-02-17T03:56:43.285Z,82.92
2019-02-17T03:57:43.278Z,83.23
2019-02-17T03:58:43.264Z,83.23
2019-02-17T03:59:43.265Z,82.26
2019-02-17T04:00:43.234Z,81.95
2019-02-17T04:01:43.239Z,81.95
2019-02-17T04:02:43.248Z,82.15
2019-02-17T04:03:43.211Z,82.05
2019-02-17T04:04:43.206Z,82.53
2019-02-17T04:05:43.198Z,81.84
2019-02-17T04:06:43.172Z,81.54
2019-02-17T04:07:43.165Z,82.01
2019-02-17T04:08:43.168Z,82.01
2019-02-17T04:09:43.142Z,81.54
2019-02-17T04:10:43.143Z,82.53
2019-02-17T04:11:43.116Z,82.32
2019-02-17T04:12:43.113Z,81.91
2019-02-17T04:13:43.098Z,81.29
2019-02-17T04:14:43.109Z,81.19
2019-02-17T04:15:43.103Z,81.70
2019-02-17T04:16:43.077Z,80.88
2019-02-17T04:17:43.066Z,81.81
2019-02-17T04:18:43.059Z,81.29
2019-02-17T04:19:43.037Z,81.46
2019-02-17T04:20:43.051Z,81.49
2019-02-17T04:21:43.024Z,80.74
2019-02-17T04:22:43.023Z,81.67
2019-02-17T04:23:42.989Z,81.25
2019-02-17T04:24:42.979Z,81.15
2019-02-17T04:25:42.978Z,81.15
2019-02-17T04:26:42.969Z,80.84
2019-02-17T04:27:42.944Z,81.25
2019-02-17T04:28:42.950Z,81.46
2019-02-17T04:29:42.931Z,81.39
2019-02-17T04:30:43.063Z,81.49
2019-02-17T04:31:42.918Z,81.49
2019-02-17T04:32:42.887Z,81.60
2019-02-17T04:33:42.882Z,81.60
2019-02-17T04:34:42.876Z,81.74
2019-02-17T04:35:42.863Z,82.05
2019-02-17T04:36:42.867Z,81.95
2019-02-17T04:37:42.851Z,82.46
2019-02-17T04:38:42.826Z,81.74
2019-02-17T04:39:42.817Z,82.05
2019-02-17T04:40:42.816Z,82.46
2019-02-17T04:41:42.804Z,82.05
2019-02-17T04:42:42.793Z,82.46
2019-02-17T04:43:42.781Z,82.26
2019-02-17T04:44:42.762Z,81.64
2019-02-17T04:45:42.746Z,82.05
2019-02-17T04:46:42.759Z,82.15
2019-02-17T04:47:42.732Z,82.05
2019-02-17T04:48:42.725Z,82.15
2019-02-17T04:49:42.731Z,81.74
2019-02-17T04:50:42.692Z,82.46
2019-02-17T04:51:42.699Z,81.64
2019-02-17T04:52:42.698Z,81.54
2019-02-17T04:53:42.660Z,81.74
2019-02-17T04:54:42.663Z,82.26
2019-02-17T04:55:42.674Z,82.67
2019-02-17T04:56:42.632Z,82.32
2019-02-17T04:57:42.648Z,82.26
2019-02-17T04:58:42.619Z,81.81
2019-02-17T04:59:42.614Z,81.81
2019-02-17T05:00:42.602Z,81.12
2019-02-17T05:01:42.585Z,81.60
2019-02-17T05:02:42.564Z,82.12
2019-02-17T05:03:42.564Z,81.81
2019-02-17T05:04:42.550Z,82.12
2019-02-17T05:05:42.540Z,82.12
2019-02-17T05:06:42.532Z,82.01
2019-02-17T05:07:42.539Z,81.81
2019-02-17T05:08:42.512Z,82.46
2019-02-17T05:09:42.505Z,82.15
2019-02-17T05:10:42.474Z,82.12
2019-02-17T05:11:42.480Z,82.01
2019-02-17T05:12:42.491Z,81.81
2019-02-17T05:13:42.458Z,82.32
2019-02-17T05:14:42.441Z,81.91
2019-02-17T05:15:42.421Z,82.36
2019-02-17T05:16:42.412Z,82.05
2019-02-17T05:17:42.409Z,82.26
2019-02-17T05:18:42.439Z,82.15
2019-02-17T05:19:42.384Z,82.36
2019-02-17T05:20:42.372Z,82.26
2019-02-17T05:21:42.363Z,81.74
2019-02-17T05:22:42.362Z,82.12
2019-02-17T05:23:42.356Z,81.39
2019-02-17T05:24:42.326Z,81.95
2019-02-17T05:25:42.311Z,82.05
2019-02-17T05:26:42.306Z,81.54
2019-02-17T05:27:42.292Z,81.84
2019-02-17T05:28:42.304Z,81.84
2019-02-17T05:29:42.279Z,81.70
2019-02-17T05:30:52.095Z,82.46
2019-02-17T05:31:43.250Z,82.15
2019-02-17T05:32:42.238Z,82.01
2019-02-17T05:33:42.238Z,81.74
2019-02-17T05:34:42.226Z,81.33
2019-02-17T05:35:42.204Z,82.05
2019-02-17T05:36:42.195Z,81.95
2019-02-17T05:37:42.191Z,81.84
2019-02-17T05:38:42.201Z,81.95
2019-02-17T05:39:42.195Z,81.74
2019-02-17T05:40:42.160Z,82.26
2019-02-17T05:41:42.155Z,81.74
2019-02-17T05:42:42.130Z,81.84
2019-02-17T05:43:42.117Z,81.23
2019-02-17T05:44:42.124Z,81.64
2019-02-17T05:45:42.104Z,81.84
2019-02-17T05:46:42.082Z,81.95
2019-02-17T05:47:42.076Z,81.74
2019-02-17T05:48:42.065Z,81.81
2019-02-17T05:49:42.067Z,81.33
2019-02-17T05:50:42.050Z,81.74
2019-02-17T05:51:42.049Z,81.43
2019-02-17T05:52:42.026Z,82.15
2019-02-17T05:53:42.018Z,81.23
2019-02-17T05:54:41.999Z,82.05
2019-02-17T05:55:42.006Z,81.95
2019-02-17T05:56:41.988Z,82.15
2019-02-17T05:57:41.968Z,81.74
2019-02-17T05:58:41.965Z,80.88
2019-02-17T05:59:41.989Z,80.81
2019-02-17T06:00:41.939Z,81.64
2019-02-17T06:01:41.922Z,81.43
2019-02-17T06:02:41.919Z,81.43
2019-02-17T06:03:41.914Z,81.74
2019-02-17T06:04:41.893Z,81.95
2019-02-17T06:05:41.897Z,81.64
2019-02-17T06:06:41.881Z,82.05
2019-02-17T06:07:41.859Z,81.47
2019-02-17T06:08:41.847Z,81.20
2019-02-17T06:09:41.842Z,80.88
2019-02-17T06:10:41.837Z,81.44
2019-02-17T06:11:41.830Z,81.96
2019-02-17T06:12:41.808Z,82.10
2019-02-17T06:13:41.800Z,82.97
2019-02-17T06:14:41.792Z,83.90
2019-02-17T06:15:41.852Z,84.15
2019-02-17T06:16:41.763Z,84.91
2019-02-17T06:17:41.753Z,84.81
2019-02-17T06:18:41.735Z,85.26
2019-02-17T06:19:41.734Z,85.47
2019-02-17T06:20:41.727Z,86.51
2019-02-17T06:21:41.708Z,86.30
2019-02-17T06:22:41.704Z,86.03
2019-02-17T06:23:41.687Z,86.51
2019-02-17T06:24:41.689Z,86.61
2019-02-17T06:25:41.670Z,86.55
2019-02-17T06:26:41.665Z,86.44
2019-02-17T06:27:41.645Z,86.13
2019-02-17T06:28:41.631Z,86.55
2019-02-17T06:29:41.622Z,86.44
2019-02-17T06:30:41.617Z,86.55
2019-02-17T06:31:41.622Z,86.24
2019-02-17T06:32:41.591Z,86.96
2019-02-17T06:33:41.574Z,88.00
2019-02-17T06:34:41.575Z,87.96
2019-02-17T06:35:41.563Z,88.38
2019-02-17T06:36:41.560Z,88.23
2019-02-17T06:37:41.554Z,86.57
2019-02-17T06:38:41.533Z,86.99
2019-02-17T06:39:41.522Z,86.85
2019-02-17T06:40:41.508Z,86.22
2019-02-17T06:41:41.518Z,86.18
2019-02-17T06:42:41.492Z,85.46
2019-02-17T06:43:41.559Z,85.56
2019-02-17T06:44:41.468Z,84.52
2019-02-17T06:45:41.457Z,84.59
2019-02-17T06:46:41.452Z,84.17
2019-02-17T06:47:41.433Z,84.17
2019-02-17T06:48:41.440Z,84.55
2019-02-17T06:49:41.417Z,84.03
2019-02-17T06:50:41.402Z,83.10
2019-02-17T06:51:41.388Z,82.79
2019-02-17T06:52:41.379Z,83.31
2019-02-17T06:53:41.363Z,83.37
2019-02-17T06:54:41.374Z,82.75
2019-02-17T06:55:41.347Z,82.13
2019-02-17T06:56:41.350Z,82.44
2019-02-17T06:57:41.329Z,82.34
2019-02-17T06:58:41.327Z,82.23
2019-02-17T06:59:41.305Z,81.92
2019-02-17T07:00:41.297Z,81.88
2019-02-17T07:01:41.290Z,81.47
2019-02-17T07:02:41.279Z,81.12
2019-02-17T07:03:41.275Z,81.05
2019-02-17T07:04:41.246Z,80.71
2019-02-17T07:05:41.233Z,80.81
2019-02-17T07:06:41.235Z,80.15
2019-02-17T07:07:41.222Z,80.29
2019-02-17T07:08:41.225Z,79.63
2019-02-17T07:09:41.200Z,79.12
2019-02-17T07:10:41.311Z,78.88
2019-02-17T07:11:41.250Z,78.46
2019-02-17T07:12:42.663Z,78.56
2019-02-17T07:13:41.154Z,77.43
2019-02-17T07:14:41.331Z,77.08
2019-02-17T07:15:41.184Z,76.98
2019-02-17T07:16:41.122Z,76.98
2019-02-17T07:17:41.187Z,76.56
2019-02-17T07:18:41.107Z,76.56
2019-02-17T07:19:41.191Z,76.67
2019-02-17T07:20:41.077Z,76.73
2019-02-17T07:21:41.070Z,76.94
2019-02-17T07:22:41.182Z,77.04
2019-02-17T07:23:41.042Z,75.81
2019-02-17T07:24:41.030Z,75.91
2019-02-17T07:25:41.032Z,75.09
2019-02-17T07:26:41.019Z,75.26
2019-02-17T07:27:41.011Z,75.46
2019-02-17T07:28:40.993Z,74.63
2019-02-17T07:29:40.995Z,74.71
2019-02-17T07:30:40.975Z,73.64
2019-02-17T07:31:40.976Z,73.74
2019-02-17T07:32:40.954Z,73.30
2019-02-17T07:33:40.934Z,71.72
2019-02-17T07:34:40.934Z,70.96
2019-02-17T07:35:40.933Z,70.10
2019-02-17T07:36:40.910Z,68.84
2019-02-17T07:37:40.920Z,68.84
2019-02-17T07:38:40.897Z,68.08
2019-02-17T07:39:40.897Z,67.85
2019-02-17T07:40:40.860Z,67.30
2019-02-17T07:41:40.883Z,66.93
2019-02-17T07:42:40.843Z,66.38
2019-02-17T07:43:40.824Z,65.94
2019-02-17T07:44:40.832Z,66.14
2019-02-17T07:45:40.802Z,66.35
2019-02-17T07:46:40.802Z,66.58
2019-02-17T07:47:40.819Z,65.86
2019-02-17T07:48:40.793Z,65.22
2019-02-17T07:49:40.764Z,65.01
2019-02-17T07:50:40.752Z,64.98
2019-02-17T07:51:40.736Z,64.37
2019-02-17T07:52:40.734Z,64.34
2019-02-17T07:53:40.768Z,62.77
2019-02-17T07:54:40.708Z,62.26
2019-02-17T07:55:40.718Z,62.54
2019-02-17T07:56:40.704Z,61.61
2019-02-17T07:57:40.675Z,61.58
2019-02-17T07:58:40.672Z,61.38
2019-02-17T07:59:40.673Z,61.07
2019-02-17T08:00:40.701Z,60.76
2019-02-17T08:01:45.324Z,61.69
2019-02-17T08:02:41.614Z,60.94
2019-02-17T08:03:40.613Z,59.68
2019-02-17T08:04:40.605Z,59.58
2019-02-17T08:05:40.580Z,59.38
2019-02-17T08:06:40.616Z,59.73
2019-02-17T08:07:40.592Z,58.17
2019-02-17T08:08:40.562Z,57.63
2019-02-17T08:09:40.538Z,56.79
2019-02-17T08:10:40.533Z,56.27
2019-02-17T08:11:40.527Z,56.81
2019-02-17T08:12:40.519Z,57.29
2019-02-17T08:13:40.539Z,57.20
2019-02-17T08:14:40.545Z,56.04
2019-02-17T08:15:40.476Z,54.77
2019-02-17T08:16:40.467Z,53.09
2019-02-17T08:17:40.466Z,52.83
2019-02-17T08:18:40.464Z,51.77
2019-02-17T08:19:40.448Z,51.42
2019-02-17T08:20:40.425Z,49.18
2019-02-17T08:21:40.432Z,50.98
2019-02-17T08:22:40.456Z,49.03
2019-02-17T08:23:40.400Z,48.80
2019-02-17T08:24:40.387Z,48.72
2019-02-17T08:25:40.418Z,49.13
2019-02-17T08:26:40.352Z,47.79
2019-02-17T08:27:40.429Z,48.58
2019-02-17T08:28:42.490Z,46.94
2019-02-17T08:29:40.319Z,46.83
2019-02-17T08:30:40.340Z,46.81
2019-02-17T08:31:40.322Z,46.89
2019-02-17T08:32:40.313Z,46.61
2019-02-17T08:33:40.310Z,46.41
2019-02-17T08:34:40.321Z,46.08
2019-02-17T08:35:40.313Z,45.98
2019-02-17T08:36:40.266Z,46.20
2019-02-17T08:37:40.282Z,45.90
2019-02-17T08:38:40.249Z,47.75
2019-02-17T08:39:40.227Z,46.81
2019-02-17T08:40:40.255Z,46.63
2019-02-17T08:41:40.213Z,47.08
2019-02-17T08:42:40.241Z,47.94
2019-02-17T08:43:40.185Z,49.48
2019-02-17T08:44:40.191Z,50.12
2019-02-17T08:45:40.178Z,51.69
2019-02-17T08:46:40.136Z,52.55
2019-02-17T08:47:40.121Z,52.37
2019-02-17T08:48:40.132Z,53.72
2019-02-17T08:49:40.104Z,53.75
2019-02-17T08:50:40.104Z,54.72
2019-02-17T08:51:40.116Z,55.05
2019-02-17T08:52:40.104Z,56.17
2019-02-17T08:53:40.065Z,56.61
2019-02-17T08:54:40.079Z,56.92
2019-02-17T08:55:40.036Z,57.22
2019-02-17T08:56:40.067Z,57.25
2019-02-17T08:57:40.105Z,56.94
2019-02-17T08:58:40.004Z,56.94
2019-02-17T08:59:39.990Z,56.92
2019-02-17T09:00:39.988Z,57.22
2019-02-17T09:01:40.535Z,56.61
2019-02-17T09:02:40.823Z,56.58
2019-02-17T09:03:39.970Z,56.15
2019-02-17T09:04:40.017Z,55.10
2019-02-17T09:05:44.144Z,54.59
2019-02-17T09:06:39.917Z,54.18
2019-02-17T09:07:39.921Z,54.49
2019-02-17T09:08:39.961Z,55.07
2019-02-17T09:09:39.883Z,53.62
2019-02-17T09:10:39.875Z,53.29
2019-02-17T09:11:39.881Z,53.70
2019-02-17T09:12:39.846Z,52.88
2019-02-17T09:13:39.849Z,52.15
2019-02-17T09:14:39.832Z,53.29
2019-02-17T09:15:39.822Z,52.96
2019-02-17T09:16:39.820Z,52.86
2019-02-17T09:17:39.827Z,52.96
2019-02-17T09:18:39.837Z,53.47
2019-02-17T09:19:39.770Z,52.25
2019-02-17T09:20:39.784Z,52.22
2019-02-17T09:21:39.842Z,50.82
2019-02-17T09:22:39.758Z,52.66
2019-02-17T09:23:39.737Z,52.55
2019-02-17T09:24:39.790Z,53.16
2019-02-17T09:25:39.714Z,52.37
2019-02-17T09:26:39.708Z,52.37
2019-02-17T09:27:39.688Z,52.88
2019-02-17T09:28:39.749Z,53.11
2019-02-17T09:29:39.665Z,53.55
2019-02-17T09:30:39.673Z,53.55
2019-02-17T09:31:39.740Z,53.72
2019-02-17T09:32:39.630Z,52.93
2019-02-17T09:33:39.664Z,53.55
2019-02-17T09:34:39.665Z,54.33
2019-02-17T09:35:39.623Z,53.62
2019-02-17T09:36:39.603Z,53.34
2019-02-17T09:37:39.632Z,52.70
2019-02-17T09:38:39.612Z,52.62
2019-02-17T09:39:39.563Z,53.14
2019-02-17T09:40:39.540Z,54.13
2019-02-17T09:41:39.531Z,53.11
2019-02-17T09:42:39.540Z,54.33
2019-02-17T09:43:39.515Z,53.19
2019-02-17T09:44:39.506Z,51.99
2019-02-17T09:45:39.504Z,53.24
2019-02-17T09:46:39.480Z,52.42
2019-02-17T09:47:39.472Z,52.73
2019-02-17T09:48:39.470Z,53.03
2019-02-17T09:49:39.469Z,52.93
2019-02-17T09:50:39.447Z,53.75
2019-02-17T09:51:39.436Z,53.14
2019-02-17T09:52:39.408Z,52.83
2019-02-17T09:53:39.402Z,53.03
2019-02-17T09:54:39.409Z,53.36
2019-02-17T09:55:39.388Z,52.86
2019-02-17T09:56:39.370Z,52.53
2019-02-17T09:57:39.362Z,53.67
2019-02-17T09:58:39.360Z,53.24
2019-02-17T09:59:39.342Z,52.60
2019-02-17T10:00:39.345Z,52.83
2019-02-17T10:01:39.344Z,52.93
2019-02-17T10:02:39.313Z,52.73
2019-02-17T10:03:39.288Z,52.42
2019-02-17T10:04:39.287Z,52.22
2019-02-17T10:05:39.292Z,52.53
2019-02-17T10:06:39.277Z,51.91
2019-02-17T10:07:39.290Z,52.32
2019-02-17T10:08:39.249Z,52.50
2019-02-17T10:09:39.228Z,52.09
2019-02-17T10:10:39.257Z,52.09
2019-02-17T10:11:39.210Z,52.50
2019-02-17T10:12:39.199Z,52.09
2019-02-17T10:13:39.205Z,52.09
2019-02-17T10:14:39.201Z,51.79
2019-02-17T10:15:39.194Z,52.20
2019-02-17T10:16:39.170Z,52.50
2019-02-17T10:17:39.143Z,52.27
2019-02-17T10:18:39.129Z,52.48
2019-02-17T10:19:39.122Z,50.95
2019-02-17T10:20:39.127Z,52.58
2019-02-17T10:21:39.122Z,51.76
2019-02-17T10:22:39.082Z,52.27
2019-02-17T10:23:39.070Z,51.15
2019-02-17T10:24:39.058Z,52.17
2019-02-17T10:25:39.049Z,51.76
2019-02-17T10:26:39.054Z,51.25
2019-02-17T10:27:39.077Z,52.29
2019-02-17T10:28:42.392Z,51.58
2019-02-17T10:29:39.012Z,52.27
2019-02-17T10:30:39.012Z,51.76
2019-02-17T10:31:38.986Z,52.17
2019-02-17T10:32:39.317Z,52.37
2019-02-17T10:33:38.992Z,52.45
2019-02-17T10:34:38.953Z,52.35
2019-02-17T10:35:40.481Z,51.94
2019-02-17T10:36:38.939Z,51.00
2019-02-17T10:37:38.918Z,51.20
2019-02-17T10:38:38.912Z,50.16
2019-02-17T10:39:38.920Z,50.06
2019-02-17T10:40:38.910Z,49.35
2019-02-17T10:41:38.933Z,50.26
2019-02-17T10:42:38.867Z,50.06
2019-02-17T10:43:38.855Z,50.78
2019-02-17T10:44:38.839Z,50.78
2019-02-17T10:45:38.830Z,50.75
2019-02-17T10:46:38.836Z,49.12
2019-02-17T10:47:38.848Z,49.12
2019-02-17T10:48:38.808Z,48.51
2019-02-17T10:49:38.786Z,48.43
2019-02-17T10:50:38.779Z,48.41
2019-02-17T10:51:38.787Z,48.31
2019-02-17T10:52:38.760Z,49.55
2019-02-17T10:53:38.756Z,48.43
2019-02-17T10:54:38.751Z,49.12
2019-02-17T10:55:38.722Z,50.06
2019-02-17T10:56:38.714Z,50.57
2019-02-17T10:57:38.734Z,48.61
2019-02-17T10:58:38.693Z,48.51
2019-02-17T10:59:38.713Z,48.11
2019-02-17T11:00:38.673Z,48.61
2019-02-17T11:01:38.658Z,49.30
2019-02-17T11:02:46.848Z,47.88
2019-02-17T11:03:39.670Z,49.20
2019-02-17T11:04:38.631Z,47.78
2019-02-17T11:05:38.630Z,48.08
2019-02-17T11:06:38.600Z,48.08
2019-02-17T11:07:38.587Z,49.30
2019-02-17T11:08:38.594Z,46.56
2019-02-17T11:09:38.567Z,49.22
2019-02-17T11:10:38.561Z,48.28
2019-02-17T11:11:38.561Z,49.30
2019-02-17T11:12:38.556Z,47.67
2019-02-17T11:13:38.524Z,46.94
2019-02-17T11:14:38.547Z,47.06
2019-02-17T11:15:38.501Z,47.27
2019-02-17T11:16:38.507Z,47.67
2019-02-17T11:17:38.485Z,49.10
2019-02-17T11:18:38.471Z,49.28
2019-02-17T11:19:38.464Z,48.67
2019-02-17T11:20:38.481Z,47.96
2019-02-17T11:21:38.440Z,47.14
2019-02-17T11:22:38.485Z,48.36
2019-02-17T11:23:38.419Z,47.98
2019-02-17T11:24:38.407Z,47.66
2019-02-17T11:25:38.424Z,47.78
2019-02-17T11:26:38.427Z,46.53
2019-02-17T11:27:38.365Z,46.44
2019-02-17T11:28:38.368Z,46.64
2019-02-17T11:29:38.346Z,46.97
2019-02-17T11:30:38.348Z,46.84
2019-02-17T11:31:38.328Z,48.16
2019-02-17T11:32:38.354Z,46.64
2019-02-17T11:33:38.307Z,48.06
2019-02-17T11:34:38.302Z,48.06
2019-02-17T11:35:38.277Z,47.75
2019-02-17T11:36:38.275Z,46.74
2019-02-17T11:37:38.260Z,47.45
2019-02-17T11:38:38.283Z,46.66
2019-02-17T11:39:38.236Z,46.76
2019-02-17T11:40:38.221Z,46.76
2019-02-17T11:41:38.213Z,47.66
2019-02-17T11:42:38.206Z,47.14
2019-02-17T11:43:38.197Z,46.74
2019-02-17T11:44:38.225Z,47.35
2019-02-17T11:45:38.174Z,48.27
2019-02-17T11:46:38.156Z,47.14
2019-02-17T11:47:38.149Z,47.55
2019-02-17T11:48:38.135Z,47.35
2019-02-17T11:49:38.171Z,46.44
2019-02-17T11:50:38.134Z,46.76
2019-02-17T11:51:38.111Z,48.00
2019-02-17T11:52:38.092Z,48.28
2019-02-17T11:53:38.084Z,47.90
2019-02-17T11:54:38.089Z,46.86
2019-02-17T11:55:38.110Z,46.97
2019-02-17T11:56:38.087Z,47.17
2019-02-17T11:57:38.042Z,47.78
2019-02-17T11:58:38.041Z,47.78
2019-02-17T11:59:38.015Z,47.78
2019-02-17T12:00:38.007Z,47.98
2019-02-17T12:01:38.007Z,47.98
2019-02-17T12:02:38.032Z,48.19
2019-02-17T12:03:37.977Z,49.33
2019-02-17T12:04:37.967Z,47.39
2019-02-17T12:05:37.968Z,49.40
2019-02-17T12:06:37.944Z,48.08
2019-02-17T12:07:37.927Z,49.00
2019-02-17T12:08:37.936Z,47.17
2019-02-17T12:09:37.921Z,48.19
2019-02-17T12:10:37.913Z,47.78
2019-02-17T12:11:37.880Z,47.78
2019-02-17T12:12:37.898Z,48.31
2019-02-17T12:13:37.874Z,48.39
2019-02-17T12:14:37.868Z,49.18
2019-02-17T12:15:37.845Z,48.28
2019-02-17T12:16:37.842Z,46.97
2019-02-17T12:17:37.818Z,47.14
2019-02-17T12:18:37.820Z,46.84
2019-02-17T12:19:37.793Z,47.66
2019-02-17T12:20:37.859Z,47.35
2019-02-17T12:21:37.792Z,47.55
2019-02-17T12:22:37.772Z,47.78
2019-02-17T12:23:37.751Z,46.74
2019-02-17T12:24:37.745Z,47.14
2019-02-17T12:25:37.735Z,47.14
2019-02-17T12:26:37.746Z,47.05
2019-02-17T12:27:37.722Z,46.94
2019-02-17T12:28:37.698Z,47.05
2019-02-17T12:29:38.442Z,46.84
2019-02-17T12:30:37.674Z,47.14
2019-02-17T12:31:37.661Z,47.35
2019-02-17T12:32:37.689Z,47.06
2019-02-17T12:33:37.643Z,47.78
2019-02-17T12:34:37.637Z,47.88
2019-02-17T12:35:37.623Z,47.98
2019-02-17T12:36:37.620Z,49.00
2019-02-17T12:37:37.608Z,47.17
2019-02-17T12:38:37.617Z,47.37
2019-02-17T12:39:37.578Z,49.10
2019-02-17T12:40:37.569Z,47.86
2019-02-17T12:41:37.563Z,47.37
2019-02-17T12:42:37.542Z,47.78
2019-02-17T12:43:37.550Z,47.37
2019-02-17T12:44:37.537Z,48.69
2019-02-17T12:45:37.531Z,49.00
2019-02-17T12:46:37.502Z,48.19
2019-02-17T12:47:37.498Z,48.80
2019-02-17T12:48:39.724Z,47.37
2019-02-17T12:49:37.466Z,48.28
2019-02-17T12:50:37.485Z,48.80
2019-02-17T12:51:37.452Z,49.20
2019-02-17T12:52:46.486Z,48.19